This is the latest recevied weather packets stored in our database for station/object HS5FXK-3. If no packets are shown the sender has not sent any weather packets the latest 10 day(s).
| Time | Temp. | Humidity | Pressure | Rain* | Wind** | Luminosity | Snow |
|---|---|---|---|---|---|---|---|
| 1777781420 | 39.44° C | 32% | 979 hPa | - | - | 0 W/m² | - |
| 1777780695 | 38.89° C | 34% | 979 hPa | - | - | 0 W/m² | - |
| 1777780260 | 38.89° C | 33% | 979 hPa | - | - | 0 W/m² | - |
| 1777779728 | 38.89° C | 33% | 979 hPa | - | - | 0 W/m² | - |
| 1777779217 | 37.78° C | 34% | 979 hPa | - | - | 0 W/m² | - |
| 1777778294 | 37.22° C | 36% | 980 hPa | - | - | 0 W/m² | - |
| 1777777997 | 38.33° C | 35% | 980 hPa | - | - | 0 W/m² | - |
| 1777777404 | 37.22° C | 37% | 980 hPa | - | - | 0 W/m² | - |
| 1777776490 | 37.22° C | 36% | 980 hPa | - | - | 0 W/m² | - |
| 1777776115 | 36.67° C | 38% | 980 hPa | - | - | 0 W/m² | - |
| 1777775113 | 36.11° C | 42% | 980 hPa | - | - | 0 W/m² | - |
| 1777774199 | 34.44° C | 43% | 980 hPa | - | - | 0 W/m² | - |
| 1777773286 | 33.33° C | 45% | 980 hPa | - | - | 0 W/m² | - |
| 1777772376 | 32.78° C | 48% | 980 hPa | - | - | 0 W/m² | - |
| 1777771462 | 31.67° C | 51% | 980 hPa | - | - | 0 W/m² | - |
| 1777770550 | 31.11° C | 59% | 980 hPa | - | - | 0 W/m² | - |
| 1777769637 | 29.44° C | 66% | 979 hPa | - | - | 0 W/m² | - |
| 1777768726 | 28.89° C | 71% | 979 hPa | - | - | 0 W/m² | - |
| 1777767813 | 28.33° C | 76% | 979 hPa | - | - | 0 W/m² | - |
| 1777766901 | 27.22° C | 79% | 979 hPa | - | - | 0 W/m² | - |
| 1777765988 | 26.67° C | 82% | 979 hPa | - | - | 0 W/m² | - |
| 1777765535 | 26.67° C | 83% | 979 hPa | - | - | 0 W/m² | - |
| 1777764623 | 26.11° C | 85% | 978 hPa | - | - | 0 W/m² | - |
| 1777763711 | 26.11° C | 85% | 978 hPa | - | - | 0 W/m² | - |
| 1777762799 | 26.11° C | 82% | 978 hPa | - | - | 0 W/m² | - |
* Rain since midnight (hover to see other rain measurements)
** Current wind speed in m/s (hover to see current wind gust speed)